Nicolas Charpentier

Olheiro-Chefe - Angers SCO
23 Out 2027
Sábado
Processo

Personalidade

Adaptabilidade (18) Ambição (12) Controvérsia (11) Lealdade (14) Pressão (6) Profissionalismo (6) Espírito Esportivo (12) Temperamento (14)

Perfil

Estilo de Treinamento Democrático
Licença Continental C
Determinação 4
Gestão de Pessoas 6
Motivação 13
Disciplina 7
Satisfação no Trabalho
100%
Fadiga
0%
Função Olheiro-Chefe
Salário 27.0K p/s
Contrato 14.03.2029

Desempenho

Comportamento Bom
Eficácia do Treinamento
41%
Desenvolvimento do Jogador
55%
Prevenção de Lesões
30%
Implementação Tática
25%

Eventos Recentes

Participou de uma reunião de recrutamento agora
Participou de uma reunião de recrutamento agora
Participou de uma reunião de recrutamento agora
Participou de uma reunião de recrutamento agora
Participou de uma reunião de recrutamento 7d atrás
Participou de uma reunião de recrutamento 7d atrás
Participou de uma reunião de recrutamento 7d atrás
Recomendou um alvo de transferência 7d atrás

Monitorando agora

287
Jogador Clube Status Habilidade Confiança Observado Última observação Último voto
Olaniyi Saheed Kwara United Ativo 99 / 95 40% 2 05.10.2027 -
Sergio Castillo Cortulua Ativo 114 / 113 40% 2 05.10.2027 -
Marc Bernal Valladolid Ativo 146 / 150 40% 1 05.10.2027 -
Gady Beyuku Blackburn Rovers Ativo 117 / 124 40% 1 03.10.2027 -
Nazareno Roselli Defensa y Justicia Ativo 122 / 131 40% 1 03.10.2027 -
Honest Ahanor Atalanta Ativo 129 / 144 40% 1 03.10.2027 -
Aiden Hezarkhani Real Salt Lake Ativo 97 / 104 40% 2 30.09.2027 -
Dayann Methalie Everton Ativo 142 / 140 40% 2 30.09.2027 -
Tiago Gordillo San Miguel Ativo 94 / 90 40% 2 30.09.2027 -
Bastien Meupiyou Alverca Ativo 132 / 134 40% 1 29.09.2027 -
Giovanni Leoni Mansfield Town Ativo 135 / 142 40% 1 29.09.2027 -
Sheriff Amuda Shooting Stars Ativo 84 / 85 40% 2 27.09.2027 -
Facundo Balatti Penarol Ativo 92 / 112 40% 2 27.09.2027 -
Inti Borghetto Patronato Ativo 92 / 96 40% 1 27.09.2027 -
Gideon Manaseh Ikorodu City Ativo 85 / 98 40% 3 26.09.2027 -
Louis Leroux FC Nantes Ativo 122 / 137 40% 1 26.09.2027 -
Sebastián Ramírez America de Cali Ativo 103 / 112 40% 1 26.09.2027 -
Fodé Sylla Sion Ativo 119 / 129 40% 2 25.09.2027 -
Onyeuche Ujunwa Ikorodu City Ativo 79 / 87 40% 1 25.09.2027 -
Ayyoub Bouaddi Blackpool Ativo 137 / 156 40% 2 24.09.2027 -
Godwin Oham Warri Wolves Ativo 84 / 94 40% 1 24.09.2027 -
Halam Loboa Independiente Medellin Ativo 116 / 133 40% 1 24.09.2027 -
Fillip Jenssen Riise Stabaek Ativo 99 / 105 40% 1 23.09.2027 -
Bradel Kiwa Monaco Ativo 127 / 121 40% 1 23.09.2027 -
Azizbek To'lqinbekov Bunyodkor Ativo 92 / 96 40% 1 23.09.2027 -
Ousmane Simpara Etoiles du Mande Ativo 100 / 101 40% 1 22.09.2027 -
Amine Boukamir Charleroi Ativo 102 / 105 40% 1 22.09.2027 -
Esteban de Lima Tacuarembo Ativo 89 / 105 40% 1 20.09.2027 -
Mohamed Moussa Koïta Djoliba Ativo 104 / 104 40% 1 20.09.2027 -
Mohammed El Âdfaoui Charleroi Ativo 120 / 125 40% 1 20.09.2027 -
Guy Noël Zohouri Le Havre AC Ativo 118 / 126 40% 1 18.09.2027 -
Mads Bomholt Lillestrom Ativo 105 / 102 40% 1 18.09.2027 -
Axel Tape Bayer Leverkusen Ativo 135 / 138 40% 2 14.09.2027 -
Lucas Bergvall Tottenham Ativo 148 / 162 40% 1 14.09.2027 -
Luis Otávio Toronto FC Ativo 116 / 126 40% 1 14.09.2027 -
Jaydee Canvot Liverpool Ativo 145 / 139 40% 1 12.09.2027 -
Felipe Faúndez O'Higgins Ativo 106 / 115 40% 1 12.09.2027 -
Kaick FC Dallas Ativo 104 / 104 40% 1 10.09.2027 -
Ayden Heaven Sheffield Wednesday Ativo 141 / 151 40% 1 09.09.2027 -
Mateo Caballero Defensor Sporting Ativo 93 / 115 40% 1 08.09.2027 -
Lautaro Dufur Rentistas Ativo 96 / 112 40% 1 06.09.2027 -
Thomas Alderweireld Dijon Negociando 136 / 135 40% 1 30.08.2027 -
Mohammed Wakaso Hasaacas Ativo 97 / 106 40% 1 30.08.2027 -
Sam Amo-Ameyaw RC Strasbourg Ativo 128 / 140 40% 2 21.07.2027 -
Chimobi Igwilo Rangers International Ativo 84 / 98 40% 1 21.07.2027 -
Lamine Cissé Peterborough United Ativo 130 / 117 40% 7 12.07.2027 -
Lorent Tolaj Plymouth Argyle Negociando 129 / 129 40% 1 12.07.2027 -
Andrés Martín Racing Santander Ativo 142 / 141 40% 1 12.07.2027 -
Zian Flemming Ipswich Town Ativo 137 / 130 40% 1 07.07.2027 -
Jay Stansfield Birmingham Ativo 133 / 135 40% 1 07.07.2027 -
Harvey Blair Portsmouth Ativo 119 / 119 40% 1 07.07.2027 -
Ivan M'Bahia Clermont Foot Ativo 118 / 119 69% 1 05.07.2027 Aprovar
Kota Tawaratsumida Gamba Osaka Negociando 133 / 136 66% 1 01.06.2027 -
Welington Southampton Ativo 133 / 130 40% 4 29.05.2027 -
Habib Diarra Sunderland Ativo 146 / 143 40% 5 29.05.2027 -
Tyler Morton Olympique Lyonnais Ativo 145 / 140 40% 3 28.05.2027 -
Hicham Boudaoui OGC Nice Ativo 140 / 143 40% 1 28.05.2027 -
Lohann Doucet Vitoria Guimaraes Ativo 125 / 120 40% 4 26.05.2027 -
Quinten Timber Crystal Palace Ativo 153 / 146 40% 3 26.05.2027 -
Ousmane Diakité West Bromwich Albion Ativo 121 / 127 40% 1 26.05.2027 -
Shandre Campbell KV Kortrijk Ativo 107 / 112 40% 4 25.05.2027 -
Nathan Collins Brentford Ativo 148 / 145 40% 4 25.05.2027 -
Thibault Pons Olympique de Marseille Ativo 120 / 130 40% 2 25.05.2027 -
Alex Scott Bournemouth Ativo 146 / 152 40% 1 25.05.2027 -
Oumar Camara Vitoria Guimaraes Ativo 115 / 127 40% 1 25.05.2027 -
Sidiki Chérif Coventry City Ativo 130 / 125 40% 3 22.05.2027 -
Ethan Galbraith Swansea City Ativo 132 / 131 40% 7 22.05.2027 -
Oumar Solet Udinese Ativo 143 / 144 40% 7 22.05.2027 -
Yehor Yarmoliuk Brentford Ativo 155 / 156 40% 2 22.05.2027 -
Ricardo Solbes Getafe Ativo 103 / 108 40% 1 22.05.2027 -
Nacim Dendani Dijon Ativo 97 / 111 40% 1 22.05.2027 -
Milan van Ewijk Coventry City Ativo 128 / 133 40% 2 20.05.2027 -
Alfie Doughty Millwall Ativo 122 / 126 40% 2 20.05.2027 -
Stefanos Tzimas Brighton Ativo 141 / 141 40% 1 20.05.2027 -
Toni Tamarit Alverca Ativo 119 / 127 40% 2 19.05.2027 -
Alexey Batrakov Galatasaray Ativo 153 / 147 40% 1 19.05.2027 -
Sindre Walle Egeli Nottingham Forest Ativo 127 / 137 40% 1 18.05.2027 -
Tiago Araújo KAA Gent Ativo 116 / 126 40% 2 16.05.2027 -
Tristan Crama Millwall Ativo 118 / 118 40% 7 14.05.2027 -
Ramón Terrats Getafe Ativo 148 / 143 40% 5 14.05.2027 -
Max Bird Birmingham Ativo 126 / 130 40% 3 13.05.2027 -
Max Johnston Derby County Ativo 125 / 133 40% 3 13.05.2027 -
Shea Charles Southampton Ativo 132 / 140 40% 2 13.05.2027 -
Roger François Udinese Ativo 144 / 149 40% 4 12.05.2027 -
Nobel Mendy Hull City Ativo 137 / 136 40% 3 11.05.2027 -
Abner Vinicius Olympique Lyonnais Ativo 146 / 134 40% 6 10.05.2027 -
Kellen Fisher Norwich City Ativo 118 / 127 40% 2 10.05.2027 -
André Wolverhampton Ativo 147 / 149 40% 1 09.05.2027 -
Cristian Cásseres Toulouse FC Ativo 140 / 134 40% 2 08.05.2027 -
Harry Clarke Preston Ativo 124 / 121 40% 3 08.05.2027 -
James Garner Everton Ativo 149 / 150 40% 4 07.05.2027 -
Florentino Luís Ipswich Town Ativo 142 / 140 40% 1 07.05.2027 -
Adrien Truffert Bournemouth Ativo 148 / 153 40% 7 04.05.2027 -
George Brown Sheffield Wednesday Ativo 99 / 113 40% 2 04.05.2027 -
Mustafa Hekimoğlu Trabzonspor Ativo 123 / 119 40% 2 04.05.2027 -
Lewis Bate Stockport County Ativo 119 / 123 40% 1 02.05.2027 -
Anthony Oyono Frosinone Ativo 125 / 128 40% 1 02.05.2027 -
Joaquin Seys Club Brugge Ativo 129 / 132 40% 3 30.04.2027 -
Max Conway Bolton Wanderers Ativo 118 / 118 40% 1 30.04.2027 -
Mohamed El Amine Ramdaoui USM Alger Ativo 98 / 102 40% 1 30.04.2027 -
Jeffrey Adjei Wa All Stars Ativo 82 / 90 40% 2 28.04.2027 -
Matisse Samoise KAA Gent Ativo 120 / 116 40% 2 28.04.2027 -
Babis Kostoulas Aston Villa Ativo 138 / 143 40% 1 28.04.2027 -
Arsène Kouassi FC Lorient Ativo 131 / 138 40% 1 27.04.2027 -
Miloš Jovičić Zabbar St. Patrick Ativo 84 / 92 40% 2 26.04.2027 -
Braiden Graham Everton Ativo 88 / 105 40% 1 26.04.2027 -
Mathis Jangeal Famalicao Ativo 104 / 103 40% 1 26.04.2027 -
Bobby Thomas Coventry City Ativo 127 / 132 40% 1 24.04.2027 -
Ezekiel Kwame Alladoh Sheffield United Ativo 111 / 129 40% 1 24.04.2027 -
Risilanu Ismail El-Kanemi Warriors Ativo 85 / 95 40% 1 24.04.2027 -
Théo Le Bris FC Lorient Ativo 134 / 126 40% 6 19.04.2027 -
Matteo Dams Club Brugge Ativo 133 / 135 40% 4 18.04.2027 -
Arthur Avom Ebong FC Lorient Ativo 134 / 137 40% 2 17.04.2027 -
Raoul Bellanova Atalanta Ativo 144 / 146 40% 1 17.04.2027 -
Ilay Camara Anderlecht Ativo 132 / 125 40% 7 16.04.2027 -
Soungoutou Magassa West Ham United Ativo 129 / 134 40% 1 16.04.2027 -
Rassoul Ndiaye Le Havre AC Ativo 132 / 132 40% 3 15.04.2027 -
Alexsandro Ribeiro LOSC Lille Ativo 148 / 152 40% 1 15.04.2027 -
Callum Doyle Wrexham Ativo 132 / 132 40% 1 15.04.2027 -
Luke McNally Bristol City Ativo 138 / 135 40% 1 14.04.2027 -
Tiago Santos LOSC Lille Ativo 143 / 147 40% 6 12.04.2027 -
Brooke Norton-Cuffy Hull City Ativo 140 / 144 40% 2 12.04.2027 -
Leny Yoro Monaco Ativo 152 / 152 40% 2 11.04.2027 -
Tanguy Nianzou LOSC Lille Ativo 127 / 136 40% 1 10.04.2027 -
Ayumu Seko Le Havre AC Ativo 122 / 135 40% 1 10.04.2027 -
Ismaël Doukouré RC Strasbourg Ativo 131 / 134 40% 4 09.04.2027 -
Bright Arrey-Mbi Braga Ativo 141 / 138 40% 1 09.04.2027 -
Jacob Greaves Ipswich Town Ativo 138 / 134 40% 3 08.04.2027 -
Paris Brunner Monaco Ativo 110 / 129 40% 1 07.04.2027 -
Sunusi Audu New Edubiase United Ativo 91 / 84 40% 1 07.04.2027 -
Borna Knezović Casarano Ativo 104 / 106 40% 1 06.04.2027 -
Shunsuke Saito Westerlo Ativo 104 / 102 40% 1 06.04.2027 -
Tyrell Malacia Derby County Ativo 135 / 134 40% 3 04.04.2027 -
Jakob Kiilerich Zulte Waregem Ativo 113 / 115 40% 3 03.04.2027 -
Ryan Sessegnon Fulham Ativo 147 / 150 40% 1 03.04.2027 -
Cheick Oumar Souaré Viktoria Plzen Ativo 135 / 137 40% 4 01.04.2027 -
Lucas Da Cunha Como Ativo 139 / 143 40% 4 01.04.2027 -
Diego Coppola Paris FC Ativo 151 / 144 40% 2 31.03.2027 -
Arthur Atta Fiorentina Ativo 142 / 138 40% 4 29.03.2027 -
Tommy St. Jago KV Mechelen Ativo 119 / 116 40% 1 29.03.2027 -
CJ Egan-Riley Olympique de Marseille Ativo 137 / 127 40% 2 28.03.2027 -
Álex Valle Como Ativo 137 / 133 40% 1 28.03.2027 -
Dramane Kamagaté USM Alger Ativo 108 / 118 40% 1 28.03.2027 -
Tiziano Dornell Almagro Ativo 125 / 128 40% 1 26.03.2027 -
Odilon Kossounou Atalanta Ativo 146 / 139 40% 3 23.03.2027 -
Mathys Tel Stade Rennais Ativo 138 / 151 40% 4 22.03.2027 -
Hervé Boua Dié Valenciennes Ativo 90 / 85 40% 1 20.03.2027 -
Senny Mayulu Paris Saint-Germain Ativo 141 / 140 40% 1 20.03.2027 -
Yuval Ranon Vitesse Ativo 99 / 90 40% 1 18.03.2027 -
Yaimar Medina Racing Genk Ativo 129 / 120 40% 2 16.03.2027 -
Samson Baidoo RC Lens Ativo 133 / 146 40% 2 15.03.2027 -
Ibrahim Karamoko Standard Liege Ativo 116 / 128 40% 2 10.03.2027 -
Clément Akpa AJ Auxerre Ativo 139 / 125 40% 3 10.03.2027 -
José Marsà KV Mechelen Ativo 131 / 120 40% 1 09.03.2027 -
Bradley Locko Stade Brestois Ativo 143 / 145 40% 2 06.03.2027 -
Adilson Malanda Middlesbrough Ativo 129 / 128 40% 1 06.03.2027 -
Hakim Guenouche Genoa Ativo 126 / 121 40% 2 05.03.2027 -
Jarrad Branthwaite Everton Ativo 154 / 157 40% 1 05.03.2027 -
Mike Eerdhuijzen KV Mechelen Ativo 119 / 118 40% 5 04.03.2027 -
Juanlu Bournemouth Ativo 139 / 156 40% 2 04.03.2027 -
Antoine Bernard Chamois Niortais Ativo 139 / 148 40% 2 02.03.2027 -
Joris Chotard Stade Brestois Ativo 142 / 124 40% 1 27.02.2027 -
Christian Krasnodar Ativo 148 / 138 40% 1 26.02.2027 -
Aiham Ousou Charleroi Ativo 126 / 127 40% 1 20.02.2027 -
Tim Iroegbunam Hull City Ativo 142 / 144 40% 1 19.02.2027 -
Adam Wharton Crystal Palace Ativo 144 / 155 40% 1 18.02.2027 -
Léandre Kuavita Waasland-Beveren Ativo 123 / 126 40% 3 17.02.2027 -
Kevin Amaro Racing Genk Ativo 127 / 134 40% 1 16.02.2027 -
Oliver Skipp Leicester City Ativo 127 / 126 40% 1 15.02.2027 -
Óscar Mingueza Crystal Palace Ativo 143 / 149 40% 1 14.02.2027 -
Moïse Bombito OGC Nice Ativo 139 / 134 40% 1 14.02.2027 -
Marvin Elimbi Gil Vicente Ativo 116 / 122 40% 1 14.02.2027 -
Kevin Chadli Mouscron Ativo 117 / 116 40% 1 11.02.2027 -
Taiga Hata Sint-Truiden Ativo 128 / 121 40% 1 04.02.2027 -
Roberto Alvarado Porto Negociando 139 / 139 66% 1 25.01.2027 -
Sampson Dweh Charleroi Negociando 133 / 134 66% 1 01.01.2027 -
Mao Hosoya Manchester City Negociando 134 / 135 67% 1 01.01.2027 -
Thulani Billiat Utrecht Negociando 136 / 136 61% 1 01.01.2027 -
Walid Bouabdeli AS Nancy Ativo 117 / 96 40% 1 31.12.2026 -
Claudy M'Buyi Rapid Wien Ativo 113 / 107 40% 3 30.12.2026 -
Mamadou Diakhon Club Brugge Ativo 124 / 130 40% 2 30.12.2026 -
Thibaud Verlinden OH Leuven Ativo 131 / 117 40% 1 30.12.2026 -
Adriano Bertaccini Anderlecht Ativo 129 / 129 40% 5 29.12.2026 -
Yanis Begraoui Estoril Praia Ativo 129 / 139 40% 3 27.12.2026 -
Amine Gouiri Olympique de Marseille Ativo 148 / 147 40% 3 27.12.2026 -
Rafiu Durosinmi Racing Genk Ativo 135 / 140 40% 3 25.12.2026 -
Simon Elisor Universitatea Craiova Ativo 114 / 108 40% 4 25.12.2026 -
Adnan Carrasco FC Nantes Ativo 153 / 162 40% 7 24.12.2026 -
Ryotaro Araki Sint-Truiden Ativo 118 / 119 40% 4 24.12.2026 -
William Balikwisha OH Leuven Ativo 123 / 113 40% 2 24.12.2026 -
Enzo Le Fée Sunderland Ativo 135 / 138 40% 1 24.12.2026 -
Abdallah Sima RC Lens Ativo 123 / 137 40% 6 22.12.2026 -
Thiago Brentford Ativo 150 / 138 40% 1 22.12.2026 -
Igor Jesus Nottingham Forest Ativo 147 / 137 40% 7 21.12.2026 -
Amine Karraoui Crawley Town Ativo 95 / 85 40% 3 21.12.2026 -
Abdelkahar Kadri KAA Gent Ativo 126 / 116 40% 2 21.12.2026 -
Hákon Arnar Haraldsson LOSC Lille Ativo 151 / 155 40% 1 20.12.2026 Mais informações
Pau Víctor Estrela da Amadora Ativo 135 / 142 40% 2 19.12.2026 -
Charles De Ketelaere Atalanta Ativo 153 / 162 40% 1 19.12.2026 -
Nacer Mignolet KV Oostende Ativo 123 / 134 40% 2 18.12.2026 -
Isaac Matondo Koper Ativo 99 / 100 40% 7 15.12.2026 -
Nicolò Zaniolo Udinese Ativo 144 / 141 40% 2 13.12.2026 -
Mohamed-Ali Cho Hull City Ativo 137 / 139 40% 1 13.12.2026 -
Himad Abdelli Olympique de Marseille Ativo 146 / 129 40% 1 11.12.2026 -
Carlos Vicente Udinese Ativo 151 / 143 40% 1 11.12.2026 -
Mamoudou Karamoko Dinamo Bucharest Ativo 117 / 114 40% 3 09.12.2026 -
Makan Aïko Tondela Ativo 121 / 127 40% 1 09.12.2026 -
Marin Benko Zadar Ativo 121 / 123 40% 3 07.12.2026 -
Tristan Degreef Anderlecht Ativo 118 / 130 40% 2 07.12.2026 -
Enzo Loiodice KAA Gent Ativo 127 / 137 40% 2 07.12.2026 -
Dango Ouattara Brentford Ativo 144 / 150 40% 2 05.12.2026 -
Cody Gakpo Liverpool Ativo 163 / 153 40% 1 05.12.2026 -
Kevin Fulham Ativo 152 / 144 40% 1 05.12.2026 -
Thomas Claes Zulte Waregem Ativo 114 / 130 40% 1 05.12.2026 -
Carlos Álvarez Club America Ativo 150 / 144 40% 2 04.12.2026 Mais informações
Tommy Conway Middlesbrough Ativo 126 / 119 40% 3 02.12.2026 -
Fally Mayulu Arouca Ativo 112 / 114 40% 1 02.12.2026 -
Jacques Siwe Rubin Ativo 107 / 104 40% 4 30.11.2026 -
Nicolas Jackson Aston Villa Ativo 143 / 138 40% 3 30.11.2026 -
Benoît Gérard RC Strasbourg Ativo 126 / 125 40% 2 28.11.2026 -
Louicius Deedson Sochaux Ativo 111 / 110 40% 2 28.11.2026 -
Aimé Omgba KAA Gent Ativo 117 / 115 40% 1 28.11.2026 -
George Hirst Stoke City Ativo 131 / 138 40% 3 27.11.2026 -
Liam Delap Nottingham Forest Ativo 137 / 140 40% 2 27.11.2026 -
Giacomo Raspadori Atalanta Ativo 144 / 143 40% 1 24.11.2026 -
Yann Gboho Toulouse FC Ativo 140 / 137 40% 1 24.11.2026 -
Emile Smith Rowe Fulham Ativo 155 / 154 40% 1 24.11.2026 -
Keano Vanrafelghem KV Mechelen Ativo 118 / 106 40% 2 20.11.2026 -
Ansu Fati Monaco Ativo 132 / 135 40% 2 18.11.2026 -
Fábio Carvalho Brentford Ativo 131 / 139 40% 1 18.11.2026 -
Iliman N'Diaye Everton Ativo 160 / 154 40% 3 17.11.2026 -
Krépin Diatta Monaco Ativo 138 / 135 40% 1 17.11.2026 -
Loum Tchaouna Coventry City Ativo 132 / 132 40% 1 17.11.2026 Mais informações
Rafael Leão Galatasaray Ativo 169 / 165 40% 5 16.11.2026 -
Folarin Balogun Monaco Ativo 128 / 148 40% 1 15.11.2026 -
Ammar Ramadan DAC Dunajska Streda Ativo 133 / 114 40% 1 13.11.2026 -
Danny Namaso AJ Auxerre Ativo 126 / 132 40% 1 13.11.2026 -
Jakob Napoleon Romsaas Charleroi Ativo 112 / 129 40% 5 11.11.2026 -
Thorgan Castagne KV Oostende Ativo 114 / 122 40% 1 11.11.2026 -
Leonardo Lopes KAA Gent Ativo 120 / 111 40% 1 11.11.2026 -
Camilo Durán Bloemfontein Celtic Ativo 114 / 119 40% 1 09.11.2026 -
David Miculescu FCSB Ativo 124 / 130 40% 1 09.11.2026 -
Yousef Salech Cardiff City Ativo 121 / 130 40% 1 08.11.2026 -
Félix Lemaréchal Club Brugge Ativo 127 / 138 40% 1 08.11.2026 -
João Félix Aston Villa Ativo 155 / 160 40% 1 06.11.2026 -
Kevin Schade Brentford Ativo 153 / 152 40% 1 04.11.2026 -
Richard Koné Queens Park Rangers Ativo 115 / 123 40% 1 03.11.2026 -
Zayd El Kandoussi OH Leuven Ativo 114 / 113 40% 1 02.11.2026 -
Daan Heymans Racing Genk Ativo 119 / 129 40% 1 31.10.2026 -
Mikkel Damsgaard Brentford Ativo 151 / 144 40% 1 31.10.2026 -
Willem Geubbels Lecce Ativo 124 / 123 40% 3 29.10.2026 -
Mika Biereth Monaco Ativo 141 / 137 40% 1 28.10.2026 -
Luca Koleosho Paris FC Ativo 129 / 132 40% 1 26.10.2026 -
Myron van Brederode KV Mechelen Ativo 127 / 132 40% 2 25.10.2026 -
Gonzalo Fulham Ativo 144 / 146 40% 1 25.10.2026 -
Liel Abada Charlotte Football Club Ativo 119 / 116 40% 1 24.10.2026 -
Mardochée Nzita Charleroi Ativo 107 / 119 40% 1 24.10.2026 -
Adam Idah Swansea City Ativo 117 / 130 40% 1 20.10.2026 -
Carlos Forbs Club Brugge Ativo 131 / 129 40% 1 20.10.2026 -
Timothé Nkada Standard Liege Ativo 118 / 115 40% 2 17.10.2026 -
Rumarn Burrell Queens Park Rangers Ativo 122 / 118 40% 1 17.10.2026 -
Brennan Johnson Everton Ativo 143 / 140 40% 1 16.10.2026 -
Jules Armand Kooh Dynamo Douala Ativo 92 / 101 40% 1 14.10.2026 -
Mason Mount Manchester United Ativo 159 / 154 40% 1 14.10.2026 -
Thiago Almada Fiorentina Ativo 148 / 155 40% 1 14.10.2026 -
Osame Sahraoui LOSC Lille Ativo 146 / 144 40% 1 13.10.2026 -
Roberto Fernández Braga Ativo 146 / 143 40% 1 11.10.2026 Mais informações
Wilson Isidor Sunderland Ativo 131 / 130 40% 2 07.10.2026 -
Bénie Traoré New York City Ativo 111 / 116 40% 1 07.10.2026 -
Iván Angulo Orlando City Ativo 141 / 117 40% 1 07.10.2026 -
Kyan Vaesen OH Leuven Ativo 119 / 118 40% 1 05.10.2026 -
Tadeo Allende Inter Miami CF Ativo 123 / 113 40% 1 02.10.2026 -
Zakaria Bengueddoudj Kifisia Ativo 79 / 100 40% 1 01.10.2026 -
Rodrigo Muniz Fulham Ativo 135 / 139 40% 1 01.10.2026 -
Rafael Navarro St. Louis CITY SC Ativo 115 / 138 40% 1 01.10.2026 -
Kelvin Yeboah Minnesota United FC Ativo 137 / 114 40% 1 29.09.2026 -
Danylo Sikan Anderlecht Ativo 123 / 118 40% 1 25.09.2026 -
Julien Lamy Lokomotiv Plovdiv Ativo 101 / 105 40% 1 25.09.2026 -
Cheikh Sabaly Vancouver Whitecaps Ativo 129 / 129 40% 2 24.09.2026 -
Nicolás Cordero Aldosivi Ativo 113 / 126 40% 2 22.09.2026 -
Mohamed Bamba FC Lorient Ativo 113 / 113 40% 2 21.09.2026 -
Ismaïl Seydi SonderjyskE Ativo 86 / 105 40% 1 21.09.2026 -
Luca Langoni New England Revolution Ativo 128 / 113 40% 1 19.09.2026 -
Igor Paixão Olympique de Marseille Ativo 142 / 151 40% 2 16.09.2026 -
Enzo Avaro Mitre Ativo 123 / 110 40% 1 11.09.2026 -
Arno Verschueren Waasland-Beveren Ativo 130 / 121 40% 1 02.08.2026 -
Brahim Díaz Real Madrid Ativo 155 / 146 40% 1 02.08.2026 -